Historyczne dane pomiarowe

Dodano dane terminowe – wersja testowa.

Dane z okresu 1951-2019

Wersja bazy: 1.34 [2019-03-16, lista zmian], aktualizacja planowana na 2019-04-15

Dane meteo z obszaru Polski uzyskane na podstawie danych udostępnionych przez Instytut Meteorologii i Gospodarki Wodnej – Państwowy Instytut Badawczy.

 

Wybierz Datę:    

       

TemperaturaWilgotnośćWiatrCiśnienieOpadyŚniegCzas trwania zjawisk
 Stacja t tx tn tng RH VA  wxwx mslp ppp RRR   cm mm wxwxwxwxwxwxwx
1987-08-14 14.6 21.8 9.0- 67.0- 6.3 2.7---- 0.0------------
1987-08-13 14.1 20.3 7.8- 65.5- 5.7 2.0---- 0.0------------
1987-08-12 13.2 17.9 9.6- 72.8- 4.3 1.7---- 0.2------------
1987-08-11 14.5 17.9 12.1- 76.3- 3.7 2.3---- 0.0------------
1987-08-10 15.0 21.2 14.0- 87.0- 5.7 2.3---- 1.0------------
1987-08-09 18.4 24.8 12.1- 60.5- 4.7 2.0---- 0.0------------
1987-08-08 15.3 20.8 10.4- 69.8- 3.0 1.7---- 0.0------------
1987-08-07 12.3 17.3 7.7- 76.0- 6.0 1.0---- 0.4------------
1987-08-06 11.8 15.8 9.8- 82.0- 4.3 2.0---- 0.9------------
1987-08-05 13.6 18.4 10.3- 76.8- 5.3 1.3---- 0.0------------
1987-08-04 16.9 21.2 13.3- 75.0- 5.7 1.7---- 1.9------------
1987-08-03 15.4 20.5 11.7- 78.8- 5.7 2.0---- 0.0------------
1987-08-02 16.1 19.3 13.2- 71.5- 6.3 3.0---- 6.1------------
1987-08-01 16.4 22.4 10.3- 74.8- 5.7 2.0---- 2.1------------
1987-07-31 16.4 21.9 14.2- 85.0- 7.3 1.7---- 1.1------------
1987-07-30 19.4 25.2 14.4- 68.0- 2.3 1.3---- 1.2------------
1987-07-29 15.5 20.4 11.3- 64.8- 4.3 2.0---- 0.0------------
1987-07-28 13.8 17.7 12.6- 81.5- 6.7 3.0---- 2.1------------
1987-07-27 13.1 17.9 9.0- 71.0- 4.7 2.3---- 1.8------------
1987-07-26 13.5 19.5 10.4- 90.0- 8.0 1.3---- 11.2------------
1987-07-25 19.8 25.2 15.4- 80.5- 4.3 1.3---- 2.1------------
1987-07-24 20.6 27.8 17.8- 82.5- 5.0 1.0---- 1.0------------
1987-07-23 21.2 28.5 14.2- 76.5- 4.0 1.3---- 5.3------------
1987-07-22 20.6 25.4 16.3- 79.0- 6.0 1.7---- 0.0------------
1987-07-21 21.2 27.0 15.1- 73.0- 4.0 1.3---- 0.0------------
1987-07-20 21.2 25.2 18.3- 74.3- 3.3 3.0---- 0.0------------
1987-07-19 23.3 28.7 20.0- 79.8- 4.7 2.0---- 1.2------------
1987-07-18 25.2 30.8 18.1- 68.5- 2.7 1.3---- 0.0------------
1987-07-17 23.4 31.1 16.2- 74.5- 5.0 1.3---- 0.0------------
1987-07-16 20.0 27.4 12.6- 77.0- 3.7 1.3---- 2.8------------
1987-07-15 17.9 24.4 9.1- 71.0- 1.7 1.3---- 0.0------------
1987-07-14 17.8 21.8 12.2- 65.5- 2.3 1.3---- 0.0------------
1987-07-13 19.7 25.6 15.4- 75.0- 4.3 2.7---- 0.0------------
1987-07-12 23.4 30.2 16.2- 59.3- 3.0 2.7---- 17.8------------
1987-07-11 18.2 24.8 10.3- 66.5- 1.7 1.3---- 0.0------------
1987-07-10 15.7 19.8 12.0- 70.8- 3.7 2.0---- 0.0------------
1987-07-09 17.4 25.4 15.4- 86.5- 8.0 2.0---- 6.3------------
1987-07-08 22.8 29.6 15.0- 56.8- 1.0 1.3---- 0.0------------
1987-07-07 19.3 27.1 12.0- 62.5- 0.3 1.3---- 0.0------------
1987-07-06 18.1 23.4 10.4- 64.5- 1.0 1.3---- 0.0------------
1987-07-05 17.0 20.7 14.4- 74.5- 3.7 1.3---- 2.4------------
1987-07-04 20.0 24.8 15.4- 70.3- 5.3 1.3---- 0.0------------
1987-07-03 19.6 23.5 16.3- 75.0- 6.7 1.3---- 0.0------------
1987-07-02 19.9 28.4 17.0- 82.0- 8.0 1.0---- 0.1------------
1987-07-01 25.4 31.1 18.8- 64.5- 1.7 1.3---- 0.0------------
1987-06-30 24.0 30.2 17.1- 68.8- 1.7 1.0---- 0.0------------
1987-06-29 22.6 26.5 17.4- 70.8- 3.7 1.3---- 0.0------------
1987-06-28 20.2 25.3 15.0- 68.8- 4.3 1.3---- 0.0------------
1987-06-27 18.6 22.1 15.7- 77.0- 8.0 1.3---- 0.1------------
1987-06-26 18.0 25.8 10.0- 62.5- 4.7 1.7---- 9.0------------
1987-06-25 14.9 19.4 13.8- 76.8- 6.3 2.7---- 0.0------------
1987-06-24 17.2 21.3 14.1- 65.5- 5.3 2.0---- 1.2------------
1987-06-23 16.3 21.0 13.2- 73.3- 6.3 2.0---- 0.0------------
1987-06-22 16.4 22.2 13.8- 80.3- 7.0 2.3---- 1.4------------
1987-06-21 17.4 24.8 10.9- 69.0- 4.0 1.3---- 0.7------------
1987-06-20 16.8 23.0 8.4- 63.3- 4.0 1.7---- 0.0------------
1987-06-19 13.7 19.3 8.2- 63.5- 2.3 2.0---- 0.0------------
1987-06-18 10.9 16.4 8.0- 78.3- 6.0 1.7---- 0.8------------
1987-06-17 11.3 15.3 9.8- 73.5- 5.7 1.7---- 0.4------------
1987-06-16 13.9 24.9 10.7- 82.0- 8.0 2.7---- 5.3------------
719.6 ms

 

Źródłem pochodzenia danych jest Instytut Meteorologii i Gospodarki Wodnej – Państwowy Instytut Badawczy. Dane Instytutu Meteorologii i Gospodarki Wodnej – Państwowego Instytutu Badawczego zostały przetworzone.

Dane źródłowe można odnaleźć na stronie https://dane.imgw.pl